Time;durP1;ratioP1;P1;durP2;ratioP2;P2;SDS_P1;SDS_P2;PMS_P1;PMS_P2;Temp;Humidity;BMP_temperature;BMP_pressure;BME280_temperature;BME280_humidity;BME280_pressure;Samples;Min_cycle;Max_cycle;Signal;HPM_P1;HPM_P2
2023/12/08 00:05:23;;;;;;;21.90;11.88;;;3.50;1.00;;;;;;20636475;28;20156;-48
2023/12/08 00:15:23;;;;;;;23.55;12.35;;;3.80;1.00;;;;;;20695307;28;20409;-49
2023/12/08 00:25:24;;;;;;;23.00;12.40;;;3.60;1.00;;;;;;20749513;28;20081;-48
2023/12/08 00:35:24;;;;;;;28.90;12.32;;;3.60;1.00;;;;;;20751931;28;20084;-48
2023/12/08 00:56:22;;;;;;;25.70;13.18;;;3.30;1.00;;;;;;20743492;28;20042;-48
2023/12/08 01:06:23;;;;;;;25.08;11.85;;;3.40;1.00;;;;;;20749747;28;20048;-48
2023/12/08 01:16:23;;;;;;;25.77;13.15;;;3.50;1.00;;;;;;20731409;28;20096;-49
2023/12/08 01:26:24;;;;;;;26.85;13.50;;;3.60;1.00;;;;;;20743356;28;20427;-48
2023/12/08 01:36:24;;;;;;;26.42;14.40;;;3.50;1.00;;;;;;20744918;28;20044;-48
2023/12/08 01:46:25;;;;;;;25.50;13.23;;;3.50;1.00;;;;;;20741533;28;20118;-48
2023/12/08 01:56:26;;;;;;;27.60;13.65;;;3.60;1.00;;;;;;20732581;28;20115;-48
2023/12/08 02:06:26;;;;;;;28.90;14.23;;;3.50;1.00;;;;;;20733153;28;20049;-48
2023/12/08 02:16:41;;;;;;;25.20;13.87;;;3.60;1.00;;;;;;20740157;28;20031;-48
2023/12/08 02:26:42;;;;;;;27.80;13.98;;;3.60;1.00;;;;;;20736640;28;20571;-49
2023/12/08 02:36:45;;;;;;;26.73;13.75;;;3.60;1.00;;;;;;20734158;28;20462;-48
2023/12/08 02:46:46;;;;;;;28.73;13.57;;;3.60;1.00;;;;;;20739588;28;20030;-48
2023/12/08 02:56:46;;;;;;;26.25;14.02;;;3.50;2.00;;;;;;20737108;28;20509;-48
2023/12/08 03:06:47;;;;;;;25.05;13.18;;;3.50;7.50;;;;;;20720834;28;20046;-48
2023/12/08 03:16:49;;;;;;;30.60;13.73;;;3.40;12.00;;;;;;20729517;28;20110;-48
2023/12/08 03:26:49;;;;;;;26.38;13.60;;;3.40;16.50;;;;;;20734565;28;20937;-48
2023/12/08 03:36:50;;;;;;;34.75;14.68;;;3.30;33.40;;;;;;20730743;28;20407;-48
2023/12/08 03:46:51;;;;;;;27.80;14.25;;;3.40;31.30;;;;;;20735122;28;20033;-48
2023/12/08 03:56:51;;;;;;;27.70;15.20;;;3.30;36.60;;;;;;20742515;28;20038;-48
2023/12/08 04:06:52;;;;;;;30.45;15.18;;;3.30;44.20;;;;;;20746516;28;20424;-48
2023/12/08 04:16:52;;;;;;;26.13;13.60;;;3.40;49.70;;;;;;20746162;28;20094;-48
2023/12/08 04:26:53;;;;;;;31.73;14.95;;;3.40;54.40;;;;;;20749241;28;20653;-48
2023/12/08 04:36:53;;;;;;;26.48;14.18;;;3.40;59.10;;;;;;20741644;28;20086;-48
2023/12/08 04:46:54;;;;;;;28.30;15.05;;;3.40;57.60;;;;;;20741882;28;20086;-48
2023/12/08 04:56:55;;;;;;;25.58;14.13;;;3.50;62.50;;;;;;20743740;28;20056;-48
2023/12/08 05:06:55;;;;;;;28.35;15.00;;;3.40;72.00;;;;;;20745472;28;20049;-48
2023/12/08 05:16:56;;;;;;;26.92;14.75;;;3.50;68.40;;;;;;20742324;28;20053;-48
2023/12/08 05:26:57;;;;;;;28.65;14.73;;;3.50;72.80;;;;;;20746120;28;20037;-49
2023/12/08 05:36:58;;;;;;;27.00;14.60;;;3.70;70.30;;;;;;20745266;28;20037;-48
2023/12/08 05:46:58;;;;;;;29.52;15.40;;;3.60;68.80;;;;;;20744591;28;20037;-48
2023/12/08 05:56:59;;;;;;;27.00;15.45;;;3.50;69.90;;;;;;20742606;28;20364;-48
2023/12/08 06:06:59;;;;;;;27.17;14.98;;;3.60;73.30;;;;;;20742073;28;20076;-48
2023/12/08 06:17:00;;;;;;;30.13;14.68;;;3.70;77.40;;;;;;20742451;28;20527;-48
2023/12/08 06:27:01;;;;;;;29.73;14.85;;;3.80;75.40;;;;;;20738194;28;20045;-48
2023/12/08 06:37:01;;;;;;;29.83;15.63;;;3.70;75.00;;;;;;20748160;28;20038;-48
2023/12/08 06:47:02;;;;;;;36.55;17.23;;;3.80;90.40;;;;;;20731252;28;20124;-48
2023/12/08 06:57:03;;;;;;;35.28;16.23;;;3.90;94.20;;;;;;20731168;28;20037;-48
2023/12/08 07:07:03;;;;;;;35.83;16.45;;;3.80;96.20;;;;;;20727073;28;20423;-48
2023/12/08 07:17:05;;;;;;;35.65;15.57;;;3.70;99.90;;;;;;20725257;28;20047;-48
2023/12/08 07:27:06;;;;;;;37.67;16.48;;;3.70;99.90;;;;;;20725269;28;20559;-48
2023/12/08 07:37:06;;;;;;;40.30;18.17;;;3.80;99.90;;;;;;20722738;28;20042;-48
2023/12/08 07:47:07;;;;;;;34.45;16.33;;;4.00;99.90;;;;;;20720217;28;20119;-48
2023/12/08 07:57:08;;;;;;;37.17;17.40;;;4.00;99.90;;;;;;20718121;28;20045;-48
2023/12/08 08:07:08;;;;;;;39.70;16.52;;;4.00;99.90;;;;;;20718258;28;20515;-48
2023/12/08 08:17:09;;;;;;;39.75;17.55;;;4.10;99.90;;;;;;20716972;28;20061;-48
2023/12/08 08:27:10;;;;;;;47.33;18.33;;;4.10;99.90;;;;;;20707718;28;20042;-48
2023/12/08 08:37:10;;;;;;;40.70;16.73;;;4.20;99.90;;;;;;20705959;28;20046;-48
2023/12/08 08:47:12;;;;;;;43.50;16.98;;;4.10;99.90;;;;;;20715921;28;20041;-48
2023/12/08 08:57:12;;;;;;;48.97;18.23;;;4.20;99.90;;;;;;20731259;28;20053;-48
2023/12/08 09:07:13;;;;;;;51.40;19.38;;;4.40;99.90;;;;;;20718346;28;20058;-48
2023/12/08 09:17:13;;;;;;;50.42;20.88;;;4.40;99.90;;;;;;20722240;28;20037;-48
2023/12/08 09:27:14;;;;;;;50.75;20.10;;;4.40;99.90;;;;;;20723808;28;20416;-48
2023/12/08 09:37:14;;;;;;;50.40;18.80;;;4.60;99.90;;;;;;20720267;28;20092;-48
2023/12/08 09:47:19;;;;;;;53.25;19.70;;;4.60;99.90;;;;;;20716703;28;20124;-48
2023/12/08 09:57:20;;;;;;;46.50;18.50;;;4.80;99.90;;;;;;20721752;28;20509;-48
2023/12/08 10:07:21;;;;;;;50.95;20.75;;;4.80;99.90;;;;;;20719240;28;20057;-48
2023/12/08 10:17:22;;;;;;;53.13;19.45;;;4.90;99.90;;;;;;20711918;28;20526;-48
2023/12/08 10:27:22;;;;;;;61.30;22.48;;;5.00;99.90;;;;;;20711332;28;20489;-48
2023/12/08 10:37:24;;;;;;;51.85;18.42;;;5.10;99.90;;;;;;20711620;28;20056;-49
2023/12/08 10:47:25;;;;;;;57.15;19.30;;;5.20;99.90;;;;;;20715178;28;20049;-48
2023/12/08 10:57:25;;;;;;;57.70;21.57;;;5.30;99.90;;;;;;20729795;28;20059;-49
2023/12/08 11:07:34;;;;;;;62.92;22.83;;;5.50;99.90;;;;;;20736408;28;20461;-48
2023/12/08 11:17:48;;;;;;;49.42;20.58;;;5.60;99.90;;;;;;20720788;28;20052;-49
2023/12/08 11:28:12;;;;;;;48.72;20.48;;;5.80;99.90;;;;;;20733810;28;20037;-48
2023/12/08 11:38:24;;;;;;;61.05;22.30;;;6.00;99.90;;;;;;20640936;28;20435;-48
2023/12/08 11:48:25;;;;;;;66.60;24.25;;;6.30;99.90;;;;;;20642878;28;20424;-48
2023/12/08 11:58:35;;;;;;;60.13;20.90;;;6.40;99.90;;;;;;20643995;28;20088;-48
2023/12/08 12:08:37;;;;;;;53.30;19.42;;;6.70;99.90;;;;;;20651022;28;1199110;-48
2023/12/08 12:18:38;;;;;;;49.72;23.00;;;6.90;99.90;;;;;;20744433;28;20040;-49
2023/12/08 12:28:39;;;;;;;51.33;19.23;;;7.20;99.90;;;;;;20753998;28;20141;-49
2023/12/08 12:38:41;;;;;;;52.33;18.90;;;7.40;99.90;;;;;;20740779;28;20487;-49
2023/12/08 12:48:41;;;;;;;50.42;18.15;;;7.40;99.90;;;;;;20737635;28;20045;-49
2023/12/08 12:58:42;;;;;;;54.13;18.27;;;7.60;99.90;;;;;;20732961;28;20072;-49
2023/12/08 13:08:43;;;;;;;64.78;19.98;;;7.60;99.90;;;;;;20732799;28;20060;-49
2023/12/08 13:18:45;;;;;;;61.33;21.95;;;7.60;99.90;;;;;;20740625;28;20034;-49
2023/12/08 13:28:45;;;;;;;65.15;22.13;;;7.70;99.90;;;;;;20734642;28;20046;-49
2023/12/08 13:38:46;;;;;;;60.33;18.35;;;7.90;99.90;;;;;;20734000;28;20076;-48
2023/12/08 13:48:47;;;;;;;64.82;19.98;;;8.00;99.90;;;;;;20736533;28;20864;-49
2023/12/08 13:58:48;;;;;;;80.88;20.75;;;8.20;99.90;;;;;;20656339;28;20487;-49
2023/12/08 14:08:51;;;;;;;73.45;20.73;;;8.20;99.90;;;;;;20699262;28;20045;-48
2023/12/08 14:18:52;;;;;;;63.15;18.88;;;8.50;99.90;;;;;;20735417;28;20033;-48
2023/12/08 14:28:53;;;;;;;62.38;19.00;;;8.50;99.90;;;;;;20733099;28;20042;-49
2023/12/08 14:38:53;;;;;;;63.80;19.17;;;8.40;99.90;;;;;;20723827;28;20731;-49
2023/12/08 14:48:54;;;;;;;60.22;18.50;;;8.50;99.90;;;;;;20726355;28;20037;-49
2023/12/08 14:58:54;;;;;;;64.88;20.45;;;8.50;99.90;;;;;;20725875;28;20046;-48
2023/12/08 15:08:55;;;;;;;69.10;19.30;;;8.50;99.90;;;;;;20722728;28;20403;-49
2023/12/08 15:18:55;;;;;;;59.35;18.05;;;8.40;99.90;;;;;;20727306;28;20479;-48
2023/12/08 15:28:56;;;;;;;55.33;17.52;;;8.50;99.90;;;;;;20727964;28;20069;-49
2023/12/08 15:38:57;;;;;;;49.10;16.75;;;8.50;99.90;;;;;;20724673;28;20132;-49
2023/12/08 15:48:57;;;;;;;40.15;15.18;;;8.50;99.90;;;;;;20724242;28;20073;-49
2023/12/08 15:58:58;;;;;;;63.38;17.98;;;8.50;99.90;;;;;;20728980;28;20037;-49
2023/12/08 16:08:58;;;;;;;59.22;18.42;;;8.60;99.90;;;;;;20723443;28;20045;-49
2023/12/08 16:18:59;;;;;;;55.22;19.15;;;8.60;99.90;;;;;;20725368;28;20513;-49
2023/12/08 16:28:59;;;;;;;67.80;25.60;;;8.70;99.90;;;;;;20737812;28;20227;-47
2023/12/08 16:39:00;;;;;;;61.95;21.95;;;8.80;99.90;;;;;;20738446;28;20550;-49
2023/12/08 16:49:00;;;;;;;57.28;18.95;;;8.70;99.90;;;;;;20723916;28;20064;-49
2023/12/08 16:59:01;;;;;;;47.58;19.02;;;8.80;99.90;;;;;;20740114;28;20034;-49
2023/12/08 17:09:03;;;;;;;46.30;18.50;;;8.80;99.90;;;;;;20751134;28;20069;-49
2023/12/08 17:19:04;;;;;;;57.00;19.95;;;8.80;99.90;;;;;;20752797;28;20080;-49
2023/12/08 17:29:05;;;;;;;48.85;20.10;;;8.90;99.90;;;;;;20733827;28;20041;-49
2023/12/08 17:39:05;;;;;;;65.15;21.10;;;8.90;99.90;;;;;;20735182;28;20037;-48
2023/12/08 17:49:06;;;;;;;50.30;18.80;;;8.90;99.90;;;;;;20750789;28;20045;-49
2023/12/08 17:59:07;;;;;;;57.55;20.38;;;8.80;99.90;;;;;;20740345;28;20468;-49
2023/12/08 18:09:08;;;;;;;53.07;18.67;;;8.90;99.90;;;;;;20741598;28;20454;-49
2023/12/08 18:19:08;;;;;;;50.03;18.92;;;8.80;99.90;;;;;;20743045;28;20494;-49
2023/12/08 18:29:09;;;;;;;46.47;17.27;;;8.70;99.90;;;;;;20745998;28;20102;-48
2023/12/08 18:39:10;;;;;;;47.13;18.63;;;8.60;99.90;;;;;;20720407;28;20457;-49
2023/12/08 18:49:11;;;;;;;47.35;17.80;;;8.60;99.90;;;;;;20730207;28;20510;-49
2023/12/08 18:59:12;;;;;;;51.58;19.15;;;8.40;99.90;;;;;;20727475;28;20049;-49
2023/12/08 19:09:17;;;;;;;50.95;18.92;;;8.40;99.90;;;;;;20729247;28;20037;-49
2023/12/08 19:19:17;;;;;;;42.95;16.88;;;8.20;99.90;;;;;;20731020;28;20049;-49
2023/12/08 19:29:18;;;;;;;43.33;17.52;;;8.10;99.90;;;;;;20732102;28;20037;-49
2023/12/08 19:39:18;;;;;;;44.67;16.55;;;8.10;99.90;;;;;;20727367;28;20339;-49
2023/12/08 19:49:19;;;;;;;46.10;17.45;;;8.00;99.90;;;;;;20734843;28;20038;-49
2023/12/08 19:59:19;;;;;;;42.20;17.13;;;7.90;99.90;;;;;;20727469;28;20053;-49
2023/12/08 20:09:20;;;;;;;42.65;16.55;;;7.90;99.90;;;;;;20726514;28;20037;-49
2023/12/08 20:19:21;;;;;;;39.85;16.17;;;7.90;99.90;;;;;;20731280;28;20045;-49
2023/12/08 20:29:21;;;;;;;49.38;16.08;;;7.90;99.90;;;;;;20728590;28;20059;-49
2023/12/08 20:39:22;;;;;;;43.10;15.10;;;7.90;99.90;;;;;;20731704;28;20503;-49
2023/12/08 20:49:22;;;;;;;40.65;14.90;;;7.80;99.90;;;;;;20739762;28;20220;-49
2023/12/08 20:59:23;;;;;;;44.47;14.77;;;7.80;99.90;;;;;;20741623;28;20046;-49
2023/12/08 21:09:24;;;;;;;40.42;14.70;;;7.90;99.90;;;;;;20739146;28;20081;-48
2023/12/08 21:19:24;;;;;;;44.47;15.25;;;7.90;99.90;;;;;;20746564;28;20068;-49
2023/12/08 21:29:25;;;;;;;40.97;14.35;;;7.90;99.90;;;;;;20740000;28;20092;-49
2023/12/08 21:39:25;;;;;;;44.22;13.73;;;7.90;99.90;;;;;;20741399;28;20410;-49
2023/12/08 21:49:28;;;;;;;40.00;14.93;;;7.90;99.90;;;;;;20733860;28;20405;-49
2023/12/08 21:59:29;;;;;;;39.42;13.55;;;8.00;99.90;;;;;;20720724;28;20046;-49
2023/12/08 22:09:31;;;;;;;37.05;13.43;;;8.00;99.90;;;;;;20710239;28;20072;-49
2023/12/08 22:19:32;;;;;;;44.67;13.10;;;8.00;99.90;;;;;;20734411;28;20041;-49
2023/12/08 22:29:32;;;;;;;32.95;12.60;;;7.90;99.90;;;;;;20736596;28;20048;-49
2023/12/08 22:39:33;;;;;;;29.13;11.18;;;8.10;99.90;;;;;;20667433;28;20639;-49
2023/12/08 22:49:34;;;;;;;36.03;11.07;;;8.10;99.90;;;;;;20649785;28;22278;-49
2023/12/08 22:59:34;;;;;;;22.83;9.60;;;8.20;99.90;;;;;;20653191;28;20100;-49
2023/12/08 23:09:35;;;;;;;36.92;10.48;;;8.10;99.90;;;;;;20699019;28;20516;-49
2023/12/08 23:19:35;;;;;;;35.55;9.90;;;8.10;99.90;;;;;;20742167;28;20046;-49
2023/12/08 23:29:36;;;;;;;28.98;9.68;;;8.20;99.90;;;;;;20744613;28;20497;-49
2023/12/08 23:39:38;;;;;;;27.13;9.98;;;8.10;99.90;;;;;;20739267;28;20041;-49
2023/12/08 23:49:38;;;;;;;31.55;10.32;;;8.10;99.90;;;;;;20740696;28;20033;-49
2023/12/08 23:59:39;;;;;;;37.50;10.63;;;8.10;99.90;;;;;;20717649;28;20057;-49
